Data for 08/21/2013

Time Sea-Level Adjusted Pressure Absolute Pressure Temperature Relative Humidity Dew Point Precipitation   
(mb) (inHg) (mb) (inHg) (C) (F) (%) (C) (F) (mm) (in)
00:05 1022 30.18 851 25.13 13.6 56.4 50 3.5 38.3 0 0
00:10 1022 30.18 851 25.13 13.4 56.1 51 3.5 38.3 0 0
00:15 1022 30.18 851 25.13 14.1 57.4 45 2.6 36.6 0 0
00:20 1022 30.18 851 25.13 15 59 45 3.4 38.1 0 0
00:25 1022 30.18 851 25.13 14.8 58.6 46 3.5 38.3 0 0
00:30 1022 30.18 851 25.13 15.6 60.1 41 2.5 36.6 0 0
00:35 1022 30.18 851 25.13 16.4 61.6 42 3.6 38.4 0 0
00:40 1022 30.18 851 25.13 16 60.7 43 3.4 38.2 0 0
00:45 1022 30.18 851 25.13 15.6 60 45 3.8 38.9 0 0
00:50 1022 30.18 851 25.13 15.1 59.2 48 4.2 39.6 0 0
00:55 1022 30.18 851 25.13 14.4 58 50 4.2 39.6 0 0
01:00 1022 30.18 851 25.13 14.2 57.5 50 4.1 39.3 0 0
01:05 1022 30.18 851 25.13 13.6 56.5 57 5.4 41.7 0 0
01:10 1022 30.18 851 25.13 12.2 54 59 4.6 40.2 0 0
01:15 1022 30.18 851 25.13 12.5 54.4 49 2.1 35.7 0 0
01:20 1022 30.18 852 25.16 13.5 56.3 47 2.5 36.5 0 0
01:25 1022 30.18 852 25.16 13.8 56.9 47 2.7 36.9 0 0
01:30 1022 30.18 852 25.16 14.1 57.3 46 2.8 37 0 0
01:35 1023 30.21 852 25.16 13.7 56.7 50 3.4 38.2 0 0
01:40 1023 30.21 852 25.16 13.5 56.4 45 2 35.6 0 0
01:45 1023 30.21 852 25.16 13.9 57.1 47 2.8 37 0 0
01:50 1023 30.21 852 25.16 13.3 55.9 52 3.6 38.6 0 0
01:55 1023 30.21 852 25.16 12.3 54.2 53 3.1 37.6 0 0
02:00 1023 30.21 852 25.16 12.6 54.6 52 3.1 37.6 0 0
02:05 1023 30.21 852 25.16 13 55.4 51 3.1 37.7 0 0
02:10 1023 30.21 852 25.16 13.1 55.5 50 3 37.5 0 0
02:15 1023 30.21 852 25.16 13.4 56.2 50 3.3 37.9 0 0
02:20 1023 30.21 852 25.16 13.1 55.6 55 4.2 39.6 0 0
02:25 1023 30.21 852 25.16 12.2 54 56 3.9 38.9 0 0
02:30 1023 30.21 852 25.16 12.5 54.5 55 3.7 38.7 0 0
02:35 1023 30.21 852 25.16 11.9 53.3 58 3.9 39 0 0
02:40 1023 30.21 852 25.16 11.9 53.4 56 3.5 38.3 0 0
02:45 1023 30.21 852 25.16 11.7 53 57 3.5 38.3 0 0
02:50 1023 30.21 852 25.16 11.6 52.9 55 2.8 37.1 0 0
02:55 1023 30.21 852 25.16 11.9 53.3 56 3.3 38 0 0
03:00 1023 30.21 852 25.16 11.5 52.6 57 3.2 37.8 0 0
03:05 1023 30.21 852 25.16 11.1 51.9 61 3.8 38.9 0 0
03:10 1023 30.21 852 25.16 11.7 53.1 54 2.9 37.2 0 0
03:15 1023 30.21 852 25.16 12 53.5 58 3.9 39 0 0
03:20 1023 30.21 852 25.16 10.9 51.6 63 4.2 39.6 0 0
03:25 1023 30.21 852 25.16 10.1 50.1 64 3.7 38.7 0 0
03:30 1023 30.21 852 25.16 10.3 50.6 60 3 37.4 0 0
03:35 1023 30.21 852 25.16 10.8 51.4 60 3.3 37.9 0 0
03:40 1023 30.21 852 25.16 10.5 51 60 3.2 37.8 0 0
03:45 1023 30.21 852 25.16 10.4 50.8 59 2.8 37.1 0 0
03:50 1023 30.21 852 25.16 11.1 52.1 53 2 35.7 0 0
03:55 1023 30.21 853 25.19 12.4 54.3 50 2.3 36.2 0 0
04:00 1023 30.21 853 25.19 12.7 54.8 52 3.1 37.6 0 0
04:05 1023 30.21 853 25.19 11.6 52.9 56 3.3 38 0 0
04:10 1023 30.21 853 25.19 11 51.9 57 3 37.4 0 0
04:15 1023 30.21 853 25.19 10.7 51.2 59 2.9 37.2 0 0
04:20 1023 30.21 853 25.19 10.9 51.6 57 2.9 37.2 0 0
04:25 1023 30.21 853 25.19 11.5 52.6 58 3.6 38.4 0 0
04:30 1023 30.21 853 25.19 10.4 50.8 63 3.8 38.8 0 0
04:35 1023 30.21 853 25.19 10.1 50.2 64 3.6 38.4 0 0
04:40 1023 30.21 853 25.19 10.1 50.2 64 3.6 38.5 0 0
04:45 1023 30.21 853 25.19 10.2 50.3 64 3.6 38.5 0 0
04:50 1023 30.21 853 25.19 10.2 50.4 64 3.7 38.7 0 0
04:55 1023 30.21 853 25.19 10.1 50.1 63 3.4 38.2 0 0
05:00 1023 30.21 853 25.19 10.5 50.9 61 3.2 37.8 0 0
05:05 1023 30.21 853 25.19 10.4 50.6 63 3.7 38.6 0 0
05:10 1024 30.24 853 25.19 10.6 51 61 3.4 38.2 0 0
05:15 1024 30.24 853 25.19 10.3 50.6 67 4.4 39.9 0 0
05:20 1024 30.24 853 25.19 9.1 48.5 68 3.6 38.6 0 0
05:25 1024 30.24 853 25.19 9.4 48.8 66 3.3 38 0 0
05:30 1024 30.24 853 25.19 9.5 49.1 68 3.9 38.9 0 0
05:35 1024 30.24 853 25.19 9.1 48.4 69 3.9 38.9 0 0
05:40 1024 30.24 853 25.19 9 48.2 69 3.6 38.4 0 0
05:45 1024 30.24 853 25.19 9.3 48.7 65 3.2 37.7 0 0
05:50 1024 30.24 853 25.19 9.4 48.8 65 3.1 37.6 0 0
05:55 1024 30.24 853 25.19 9.3 48.8 65 3 37.5 0 0
06:00 1024 30.24 853 25.19 9.4 48.9 65 3.1 37.6 0 0
06:05 1024 30.24 853 25.19 9.2 48.5 64 2.9 37.1 0 0
06:10 1024 30.24 853 25.19 9.3 48.8 65 3.1 37.7 0 0
06:15 1024 30.24 853 25.19 9.2 48.6 64 2.9 37.2 0 0
06:20 1024 30.24 853 25.19 9.5 49.1 64 3.1 37.7 0 0
06:25 1024 30.24 853 25.19 9.6 49.3 63 2.9 37.2 0 0
06:30 1024 30.24 853 25.19 9.8 49.7 62 2.9 37.2 0 0
06:35 1024 30.24 853 25.19 10.1 50.2 62 3.1 37.6 0 0
06:40 1024 30.24 853 25.19 10.2 50.3 60 2.9 37.2 0 0
06:45 1024 30.24 853 25.19 10.4 50.8 62 3.4 38.2 0 0
06:50 1024 30.24 853 25.19 10.4 50.7 60 3.1 37.6 0 0
06:55 1024 30.24 853 25.19 10.7 51.2 59 3.1 37.6 0 0
07:00 1024 30.24 853 25.19 10.9 51.6 59 3.3 38 0 0
07:05 1024 30.24 853 25.19 11 51.8 60 3.5 38.4 0 0
07:10 1024 30.24 853 25.19 11 51.8 63 4.2 39.6 0 0
07:15 1024 30.24 853 25.19 10.8 51.5 62 4 39.1 0 0
07:20 1024 30.24 853 25.19 10.7 51.3 64 4.2 39.6 0 0
07:25 1024 30.24 853 25.19 10.9 51.6 65 4.6 40.3 0 0
07:30 1024 30.24 853 25.19 11.2 52.1 63 4.4 39.9 0 0
07:35 1024 30.24 853 25.19 11.5 52.7 60 4.2 39.5 0 0
07:40 1024 30.24 853 25.19 12.1 53.7 60 4.5 40.2 0 0
07:45 1024 30.24 853 25.19 12.3 54.1 64 5.8 42.5 0 0
07:50 1024 30.24 853 25.19 12.5 54.4 64 5.9 42.7 0 0
07:55 1024 30.24 853 25.19 12.9 55.2 60 5.4 41.8 0 0
08:00 1024 30.24 853 25.19 13.7 56.6 57 5.4 41.8 0 0
08:05 1024 30.24 853 25.19 14.7 58.4 50 4.5 40.2 0 0
08:10 1024 30.24 853 25.19 15.3 59.5 49 4.8 40.6 0 0
08:15 1024 30.24 853 25.19 15.7 60.2 47 4.6 40.3 0 0
08:20 1024 30.24 853 25.19 16.1 61 47 4.8 40.7 0 0
08:25 1024 30.24 853 25.19 16.5 61.7 46 4.9 40.8 0 0
08:30 1024 30.24 853 25.19 16.8 62.3 44 4.8 40.6 0 0
08:35 1024 30.24 853 25.19 17.1 62.8 43 4.4 39.9 0 0
08:40 1024 30.24 853 25.19 17.5 63.5 41 4.1 39.4 0 0
08:45 1024 30.24 853 25.19 17.8 64 40 4.1 39.3 0 0
08:50 1024 30.24 853 25.19 18 64.4 40 4.2 39.6 0 0
08:55 1024 30.24 853 25.19 18.3 64.9 41 4.8 40.6 0 0
09:00 1024 30.24 853 25.19 18.7 65.6 42 5.6 42.1 0 0
09:05 1024 30.24 854 25.22 19.4 66.9 39 5.4 41.7 0 0
09:10 1024 30.24 854 25.22 19.8 67.6 36 4.3 39.7 0 0
09:15 1024 30.24 854 25.22 20.4 68.8 35 4.7 40.4 0 0
09:20 1024 30.24 853 25.19 21.1 69.9 33 4.4 40 0 0
09:25 1024 30.24 853 25.19 21 69.9 33 4.2 39.5 0 0
09:30 1024 30.24 853 25.19 20.7 69.3 37 5.7 42.2 0 0
09:35 1024 30.24 854 25.22 20.4 68.7 38 5.6 42.1 0 0
09:40 1024 30.24 854 25.22 20 67.9 38 5.5 41.9 0 0
09:45 1024 30.24 854 25.22 20 68 37 5 41 0 0
09:50 1024 30.24 854 25.22 20.3 68.5 37 5.4 41.7 0 0
09:55 1024 30.24 854 25.22 20.5 68.9 40 6.7 44.1 0 0
10:00 1024 30.24 854 25.22 20.4 68.6 41 6.7 44.1 0 0
10:05 1024 30.24 853 25.19 20.5 68.8 36 4.9 40.9 0 0
10:10 1024 30.24 854 25.22 20.6 69.1 34 4.2 39.5 0 0
10:15 1024 30.24 853 25.19 20.6 69.2 33 4.1 39.4 0 0
10:20 1024 30.24 853 25.19 20.8 69.5 31 3.3 38 0 0
10:25 1024 30.24 853 25.19 20.9 69.7 38 6.2 43.1 0 0
10:30 1024 30.24 853 25.19 21.1 69.9 37 6.1 43 0 0
10:35 1024 30.24 853 25.19 21.1 70 33 4.3 39.7 0 0
10:40 1024 30.24 853 25.19 21.3 70.3 37 6 42.9 0 0
10:45 1024 30.24 853 25.19 21.2 70.2 34 5 41 0 0
10:50 1024 30.24 853 25.19 21.5 70.7 31 3.7 38.7 0 0
10:55 1024 30.24 853 25.19 21.4 70.5 33 4.5 40.1 0 0
11:00 1024 30.24 853 25.19 21.6 70.9 30 3.6 38.5 0 0
11:05 1024 30.24 853 25.19 21.8 71.3 36 6.2 43.1 0 0
11:10 1024 30.24 853 25.19 21.8 71.2 28 2.6 36.7 0 0
11:15 1024 30.24 853 25.19 22 71.6 38 7.2 44.9 0 0
11:20 1024 30.24 853 25.19 21.9 71.5 30 3.7 38.7 0 0
11:25 1024 30.24 853 25.19 21.9 71.3 33 5.2 41.4 0 0
11:30 1024 30.24 853 25.19 22.1 71.8 33 5.1 41.2 0 0
11:35 1024 30.24 853 25.19 22.3 72.1 30 4 39.2 0 0
11:40 1024 30.24 853 25.19 22.3 72.2 31 4.6 40.3 0 0
11:45 1024 30.24 853 25.19 22.4 72.3 29 3.8 38.8 0 0
11:50 1024 30.24 853 25.19 22.5 72.5 28 3.4 38.1 0 0
11:55 1024 30.24 853 25.19 22.5 72.6 32 5.2 41.4 0 0
12:00 1024 30.24 853 25.19 22.7 72.8 31 4.9 40.8 0 0
12:05 1024 30.24 853 25.19 22.7 72.8 32 5.2 41.3 0 0
12:10 1024 30.24 853 25.19 22.7 72.9 27 2.9 37.2 0 0
12:15 1024 30.24 853 25.19 22.8 73.1 28 3.8 38.9 0 0
12:20 1024 30.24 853 25.19 23 73.3 31 5.2 41.4 0 0
12:25 1024 30.24 853 25.19 22.9 73.3 31 5.1 41.2 0 0
12:30 1024 30.24 853 25.19 23.1 73.5 31 5.1 41.2 0 0
12:35 1024 30.24 853 25.19 23 73.4 28 4 39.2 0 0
12:40 1024 30.24 853 25.19 23.1 73.6 31 5.4 41.8 0 0
12:45 1024 30.24 853 25.19 23.2 73.7 29 4.6 40.3 0 0
12:50 1024 30.24 853 25.19 23.3 73.9 30 4.9 40.8 0 0
12:55 1024 30.24 853 25.19 23.4 74.1 28 4.1 39.3 0 0
13:00 1024 30.24 853 25.19 23.6 74.5 28 4.5 40 0 0
13:05 1024 30.24 853 25.19 23.9 75 30 5.6 42 0 0
13:10 1024 30.24 853 25.19 24.3 75.7 26 3.8 38.9 0 0
13:15 1024 30.24 853 25.19 24.2 75.5 30 5.7 42.2 0 0
13:20 1024 30.24 853 25.19 24.1 75.3 29 5.2 41.4 0 0
13:25 1024 30.24 853 25.19 24.4 75.9 31 6.5 43.7 0 0
13:30 1024 30.24 853 25.19 24.6 76.3 26 4.1 39.4 0 0
13:35 1024 30.24 853 25.19 24.6 76.3 26 4.3 39.7 0 0
13:40 1024 30.24 853 25.19 24.6 76.2 26 4.1 39.4 0 0
13:45 1023 30.21 853 25.19 24.8 76.6 27 5 40.9 0 0
13:50 1023 30.21 853 25.19 24.8 76.7 26 4.5 40 0 0
13:55 1023 30.21 853 25.19 25 77 27 4.8 40.7 0 0
14:00 1023 30.21 853 25.19 25.2 77.4 26 4.6 40.3 0 0
14:05 1023 30.21 853 25.19 26 78.8 29 6.9 44.4 0 0
14:10 1023 30.21 852 25.16 25.7 78.2 30 7 44.6 0 0
14:15 1023 30.21 852 25.16 25.6 78 29 6.6 43.9 0 0
14:20 1023 30.21 852 25.16 25.8 78.4 29 6.6 43.9 0 0
14:25 1023 30.21 852 25.16 25.7 78.2 26 4.8 40.6 0 0
14:30 1023 30.21 852 25.16 25.6 78.1 30 7.2 45 0 0
14:35 1023 30.21 852 25.16 25.9 78.7 27 5.6 42 0 0
14:40 1023 30.21 852 25.16 26.2 79.2 29 7.2 45 0 0
14:45 1023 30.21 852 25.16 26.2 79.2 28 6.6 43.8 0 0
14:50 1023 30.21 852 25.16 26.2 79.2 24 4.6 40.3 0 0
14:55 1023 30.21 852 25.16 26.2 79.2 29 6.8 44.3 0 0
15:00 1023 30.21 852 25.16 26.3 79.3 22 3.2 37.7 0 0
15:05 1023 30.21 852 25.16 27 80.6 24 4.9 40.9 0 0
15:10 1023 30.21 852 25.16 26.6 79.8 26 5.7 42.3 0 0
15:15 1023 30.21 852 25.16 26.7 80.1 24 4.8 40.6 0 0
15:20 1023 30.21 852 25.16 27 80.7 23 4.5 40.1 0 0
15:25 1023 30.21 852 25.16 27.3 81.1 24 5.1 41.2 0 0
15:30 1023 30.21 852 25.16 27.3 81.1 26 6.2 43.2 0 0
15:35 1023 30.21 852 25.16 27.4 81.2 26 6.6 43.9 0 0
15:40 1023 30.21 852 25.16 27.7 81.8 24 5.6 42 0 0
15:45 1022 30.18 852 25.16 27.5 81.4 27 7 44.7 0 0
15:50 1023 30.21 852 25.16 27.6 81.6 27 7.1 44.7 0 0
15:55 1022 30.18 852 25.16 27.5 81.6 22 4.2 39.5 0 0
16:00 1022 30.18 852 25.16 27.9 82.2 26 6.9 44.4 0 0
16:05 1022 30.18 852 25.16 27.5 81.6 22 4.3 39.8 0 0
16:10 1022 30.18 852 25.16 27.8 82.1 23 5.1 41.1 0 0
16:15 1022 30.18 851 25.13 28.6 83.4 25 6.8 44.2 0 0
16:20 1022 30.18 851 25.13 28.7 83.7 20 3.8 38.8 0 0
16:25 1022 30.18 851 25.13 28.8 83.9 21 4.6 40.2 0 0
16:30 1022 30.18 851 25.13 28.9 84 21 4.9 40.9 0 0
16:35 1022 30.18 851 25.13 28.6 83.5 23 5.6 42.1 0 0
16:40 1022 30.18 851 25.13 28.6 83.4 20 3.8 38.9 0 0
16:45 1022 30.18 851 25.13 28.2 82.7 21 4.2 39.5 0 0
16:50 1022 30.18 851 25.13 28.2 82.8 19 2.8 37 0 0
16:55 1022 30.18 851 25.13 28.2 82.8 23 5.5 42 0 0
17:00 1022 30.18 851 25.13 28.3 83 22 4.7 40.5 0 0
17:05 1022 30.18 851 25.13 28.2 82.8 23 5.7 42.2 0 0
17:10 1022 30.18 851 25.13 28.3 83 18 1.8 35.3 0 0
17:15 1022 30.18 851 25.13 28.1 82.6 20 3.2 37.8 0 0
17:20 1022 30.18 851 25.13 28.1 82.5 21 4 39.2 0 0
17:25 1022 30.18 851 25.13 28.1 82.5 19 2.7 36.9 0 0
17:30 1022 30.18 851 25.13 28 82.5 18 2 35.7 0 0
17:35 1022 30.18 851 25.13 27.9 82.3 18 1.9 35.5 0 0
17:40 1022 30.18 851 25.13 27.8 82 19 2 35.6 0 0
17:45 1022 30.18 851 25.13 27.6 81.8 19 2.3 36.1 0 0
17:50 1022 30.18 851 25.13 27.6 81.7 17 1 33.8 0 0
17:55 1022 30.18 851 25.13 27.5 81.5 19 2 35.6 0 0
18:00 1022 30.18 851 25.13 27.4 81.3 18 1.4 34.4 0 0
18:05 1022 30.18 851 25.13 27.3 81.1 19 1.9 35.4 0 0
18:10 1022 30.18 851 25.13 27.1 80.8 18 0.7 33.3 0 0
18:15 1022 30.18 851 25.13 27 80.5 18 0.8 33.5 0 0
18:20 1022 30.18 851 25.13 26.6 79.8 19 1.5 34.7 0 0
18:25 1022 30.18 851 25.13 25.9 78.7 20 1.3 34.3 0 0
18:30 1022 30.18 851 25.13 25.8 78.4 20 1.1 34 0 0
18:35 1022 30.18 851 25.13 25.7 78.2 20 1.2 34.1 0 0
18:40 1022 30.18 851 25.13 25.9 78.5 20 1.2 34.1 0 0
18:45 1022 30.18 851 25.13 25.9 78.6 20 1.2 34.1 0 0
18:50 1022 30.18 851 25.13 25.9 78.5 20 1.4 34.5 0 0
18:55 1022 30.18 851 25.13 25.8 78.5 21 1.9 35.5 0 0
19:00 1022 30.18 851 25.13 25.7 78.3 20 1.7 35 0 0
19:05 1022 30.18 851 25.13 25.6 78 22 2.3 36.1 0 0
19:10 1022 30.18 851 25.13 25.5 77.9 21 1.9 35.4 0 0
19:15 1022 30.18 851 25.13 25.5 77.8 21 1.9 35.5 0 0
19:20 1022 30.18 851 25.13 25.4 77.7 21 1.8 35.3 0 0
19:25 1022 30.18 851 25.13 25.3 77.6 22 2.1 35.7 0 0
19:30 1022 30.18 851 25.13 25.2 77.3 22 2 35.5 0 0
19:35 1022 30.18 851 25.13 25 77.1 22 1.8 35.2 0 0
19:40 1022 30.18 851 25.13 24.9 76.7 22 2.2 36 0 0
19:45 1022 30.18 851 25.13 24.6 76.3 23 2.1 35.7 0 0
19:50 1022 30.18 851 25.13 24.5 76.1 23 2.2 36 0 0
19:55 1022 30.18 851 25.13 24.3 75.7 23 2.2 35.9 0 0
20:00 1022 30.18 851 25.13 24.2 75.6 24 2.4 36.3 0 0
20:05 1022 30.18 851 25.13 24.1 75.4 24 2.5 36.5 0 0
20:10 1022 30.18 851 25.13 23.8 74.9 25 2.7 36.8 0 0
20:15 1022 30.18 851 25.13 23.7 74.7 25 2.6 36.6 0 0
20:20 1022 30.18 851 25.13 23.6 74.4 25 2.7 36.9 0 0
20:25 1022 30.18 851 25.13 23.4 74.1 26 2.8 37 0 0
20:30 1022 30.18 851 25.13 23.1 73.5 26 2.8 37 0 0
20:35 1022 30.18 852 25.16 22.7 72.9 28 3.3 37.9 0 0
20:40 1022 30.18 852 25.16 22.2 71.9 28 3.1 37.5 0 0
20:45 1023 30.21 852 25.16 22 71.6 29 3.3 37.9 0 0
20:50 1023 30.21 852 25.16 21.7 71 29 3.1 37.5 0 0
20:55 1023 30.21 852 25.16 21.5 70.7 30 3.2 37.7 0 0
21:00 1023 30.21 852 25.16 21.5 70.6 30 3.1 37.6 0 0
21:05 1023 30.21 852 25.16 21.6 70.8 29 3.1 37.6 0 0
21:10 1023 30.21 852 25.16 21.8 71.2 29 3.2 37.7 0 0
21:15 1023 30.21 852 25.16 21.8 71.3 29 3 37.4 0 0
21:20 1023 30.21 852 25.16 22.1 71.7 29 3.5 38.4 0 0
21:25 1023 30.21 852 25.16 21.8 71.2 30 3.4 38.1 0 0
21:30 1023 30.21 852 25.16 21.8 71.2 30 3.5 38.3 0 0
21:35 1023 30.21 852 25.16 21.8 71.2 29 3.3 38 0 0
21:40 1023 30.21 852 25.16 21.7 71 30 3.7 38.6 0 0
21:45 1023 30.21 852 25.16 21.7 71 30 3.5 38.2 0 0
21:50 1023 30.21 852 25.16 21.7 71.1 30 3.7 38.7 0 0
21:55 1023 30.21 852 25.16 21.5 70.7 30 3.6 38.4 0 0
22:00 1023 30.21 852 25.16 21.4 70.5 31 3.7 38.6 0 0
22:05 1023 30.21 852 25.16 21.3 70.3 31 3.8 38.8 0 0
22:10 1023 30.21 852 25.16 21.2 70.1 32 3.8 38.9 0 0
22:15 1023 30.21 852 25.16 21.1 70 31 3.7 38.7 0 0
22:20 1023 30.21 852 25.16 21.2 70.2 32 4.2 39.5 0 0
22:25 1023 30.21 852 25.16 21 69.8 32 4 39.2 0 0
22:30 1023 30.21 852 25.16 21 69.8 32 3.9 39.1 0 0
22:35 1023 30.21 852 25.16 21 69.9 32 4 39.3 0 0
22:40 1023 30.21 852 25.16 21 69.8 33 4.2 39.5 0 0
22:45 1023 30.21 853 25.19 21.1 69.9 33 4.3 39.7 0 0
22:50 1023 30.21 852 25.16 21 69.9 33 4.3 39.7 0 0
22:55 1023 30.21 853 25.19 21 69.9 33 4.2 39.6 0 0
23:00 1023 30.21 853 25.19 21.1 69.9 33 4.3 39.7 0 0
23:05 1023 30.21 853 25.19 21 69.7 34 4.5 40.2 0 0
23:10 1023 30.21 853 25.19 20.8 69.4 34 4.5 40.1 0 0
23:15 1024 30.24 853 25.19 20.6 69.2 35 4.7 40.4 0 0
23:20 1024 30.24 853 25.19 20.5 68.9 34 4.5 40 0 0
23:25 1024 30.24 853 25.19 20.6 69.1 35 4.6 40.3 0 0
23:30 1024 30.24 853 25.19 20.5 69 34 4.5 40 0 0
23:35 1024 30.24 853 25.19 20.5 69 35 4.9 40.8 0 0
23:40 1024 30.24 853 25.19 20.4 68.7 35 4.7 40.5 0 0
23:45 1024 30.24 853 25.19 20.3 68.5 35 4.6 40.2 0 0
23:50 1024 30.24 853 25.19 20.3 68.5 35 4.6 40.2 0 0
23:55 1024 30.24 853 25.19 20.2 68.3 35 4.4 39.9 0 0
24:00 1024 30.24 853 25.19 20.1 68.3 35 4.3 39.7 0 0